Time;durP1;ratioP1;P1;durP2;ratioP2;P2;SDS_P1;SDS_P2;PMS_P1;PMS_P2;Temp;Humidity;BMP_temperature;BMP_pressure;BME280_temperature;BME280_humidity;BME280_pressure;Samples;Min_cycle;Max_cycle;Signal;HPM_P1;HPM_P2
2021/07/14 00:02:13;;;;;;;3.63;2.40;;;;;;;15.26;92.26;96238.81;5107316;28;20191;-65
2021/07/14 00:04:38;;;;;;;2.93;2.00;;;;;;;15.20;92.95;96224.03;5094437;28;20263;-73
2021/07/14 00:07:05;;;;;;;2.20;2.10;;;;;;;15.28;92.79;96226.09;5079740;28;20309;-66
2021/07/14 00:09:30;;;;;;;2.40;2.20;;;;;;;15.26;92.69;96216.91;5105518;28;20532;-66
2021/07/14 00:11:57;;;;;;;2.53;2.37;;;;;;;15.18;93.39;96217.44;5105978;28;20298;-65
2021/07/14 00:17:13;;;;;;;2.97;2.63;;;;;;;15.29;92.11;96208.41;5098211;28;20300;-64
2021/07/14 00:22:31;;;;;;;2.47;2.20;;;;;;;15.26;91.77;96214.25;5114012;28;20183;-65
2021/07/14 00:24:57;;;;;;;4.93;2.20;;;;;;;15.29;91.69;96221.63;5103028;28;20184;-65
2021/07/14 00:27:24;;;;;;;2.30;2.20;;;;;;;15.24;91.51;96219.00;5108732;28;20188;-64
2021/07/14 00:29:53;;;;;;;2.13;2.03;;;;;;;15.29;91.33;96216.34;5097120;28;20257;-64
2021/07/14 00:32:19;;;;;;;2.67;2.17;;;;;;;15.31;91.11;96212.38;5093276;28;20180;-64
2021/07/14 00:34:45;;;;;;;2.50;2.30;;;;;;;15.28;90.69;96205.00;5095079;28;20196;-65
2021/07/14 00:37:11;;;;;;;2.27;2.17;;;;;;;15.28;90.42;96191.78;5107559;28;20677;-65
2021/07/14 00:39:37;;;;;;;2.00;1.80;;;;;;;15.21;91.07;96185.25;5098254;28;20307;-73
2021/07/14 00:42:06;;;;;;;2.17;2.07;;;;;;;15.18;90.96;96185.75;5093380;28;20540;-64
2021/07/14 00:44:32;;;;;;;2.30;2.10;;;;;;;15.14;91.16;96174.97;5097753;28;20180;-65
2021/07/14 00:47:01;;;;;;;1.80;1.70;;;;;;;15.11;91.35;96170.19;5101978;28;20188;-64
2021/07/14 00:49:27;;;;;;;2.00;1.90;;;;;;;15.11;90.74;96164.94;5096353;28;20701;-64
2021/07/14 00:51:53;;;;;;;2.27;2.10;;;;;;;15.12;90.59;96158.59;5101797;28;20180;-64
2021/07/14 00:54:18;;;;;;;2.00;1.90;;;;;;;15.06;90.89;96150.97;5099632;28;20237;-64
2021/07/14 00:56:45;;;;;;;2.00;1.90;;;;;;;15.04;90.64;96143.34;5095721;28;20180;-65
2021/07/14 00:59:11;;;;;;;3.93;2.10;;;;;;;15.21;90.20;96149.03;5103037;28;20176;-64
2021/07/14 01:01:36;;;;;;;2.10;2.00;;;;;;;15.24;89.47;96167.00;5103059;28;20630;-71
2021/07/14 01:04:10;;;;;;;2.00;1.90;;;;;;;15.20;89.86;96181.00;5093036;28;20207;-64
2021/07/14 01:06:46;;;;;;;2.10;2.00;;;;;;;15.27;88.88;96208.69;5094446;28;20690;-64
2021/07/14 01:09:15;;;;;;;2.47;2.27;;;;;;;15.25;88.96;96226.66;5093043;28;20176;-64
2021/07/14 01:11:42;;;;;;;2.17;2.07;;;;;;;15.23;89.39;96225.34;5093809;28;20192;-71
2021/07/14 01:14:22;;;;;;;2.50;2.30;;;;;;;15.18;89.54;96228.00;5107567;28;20183;-64
2021/07/14 01:17:06;;;;;;;1.97;1.87;;;;;;;15.10;89.85;96249.69;5103349;28;20672;-64
2021/07/14 01:19:50;;;;;;;2.23;2.13;;;;;;;15.20;89.33;96254.94;5109732;28;20207;-64
2021/07/14 01:22:34;;;;;;;2.23;2.03;;;;;;;15.33;89.00;96256.97;5100269;28;20241;-64
2021/07/14 01:25:16;;;;;;;2.30;2.10;;;;;;;15.12;90.45;96273.94;5104161;28;20188;-64
2021/07/14 01:27:42;;;;;;;2.40;2.20;;;;;;;15.03;91.43;96279.00;5102159;28;20183;-65
2021/07/14 01:30:14;;;;;;;2.90;2.50;;;;;;;15.07;91.42;96281.88;5092484;28;20580;-64
2021/07/14 01:32:41;;;;;;;2.73;2.53;;;;;;;15.10;91.01;96281.34;5102192;28;20518;-72
2021/07/14 01:35:12;;;;;;;2.77;2.57;;;;;;;14.90;92.13;96277.69;5109434;28;20200;-65
2021/07/14 01:37:42;;;;;;;2.83;2.60;;;;;;;14.88;92.93;96281.63;5105754;28;20269;-71
2021/07/14 01:40:09;;;;;;;2.80;2.60;;;;;;;15.01;92.61;96275.03;5105335;28;20598;-64
2021/07/14 01:42:35;;;;;;;3.17;2.90;;;;;;;15.07;92.40;96281.88;5092420;28;20200;-65
2021/07/14 01:45:02;;;;;;;2.60;2.40;;;;;;;14.95;93.20;96282.16;5103514;28;20747;-64
2021/07/14 01:47:29;;;;;;;5.13;2.73;;;;;;;14.91;93.88;96281.13;5107370;28;20512;-64
2021/07/14 01:49:57;;;;;;;2.90;2.70;;;;;;;14.94;93.30;96273.44;5103906;28;20199;-64
2021/07/14 01:52:26;;;;;;;4.20;2.70;;;;;;;15.03;92.53;96276.34;5098920;28;20185;-65
2021/07/14 01:54:54;;;;;;;2.50;2.40;;;;;;;15.07;92.80;96280.03;5095442;28;20273;-64
2021/07/14 01:57:21;;;;;;;2.93;2.73;;;;;;;15.14;92.38;96283.19;5107725;28;20196;-64
2021/07/14 01:59:48;;;;;;;2.90;2.70;;;;;;;15.20;91.89;96279.50;5093224;28;20183;-64
2021/07/14 02:02:18;;;;;;;2.50;2.23;;;;;;;15.28;91.23;96259.66;5106878;28;20192;-64
2021/07/14 02:04:45;;;;;;;2.50;2.30;;;;;;;15.26;91.12;96261.78;5106192;28;20192;-68
2021/07/14 02:07:13;;;;;;;3.40;2.57;;;;;;;15.22;90.97;96258.88;5091585;28;20187;-64
2021/07/14 02:09:41;;;;;;;2.87;2.60;;;;;;;15.18;90.92;96262.31;5096610;28;20179;-69
2021/07/14 02:12:09;;;;;;;3.27;2.60;;;;;;;15.24;90.40;96267.31;5107013;28;20176;-64
2021/07/14 02:14:44;;;;;;;4.23;2.40;;;;;;;15.24;90.66;96267.31;5111568;28;20203;-67
2021/07/14 02:17:16;;;;;;;3.00;2.50;;;;;;;15.30;89.89;96257.53;5094296;28;20192;-65
2021/07/14 02:19:50;;;;;;;2.90;2.70;;;;;;;15.16;90.25;96252.03;5093957;28;20189;-70
2021/07/14 02:22:15;;;;;;;4.40;2.47;;;;;;;15.18;90.19;96249.91;5091639;28;20259;-65
2021/07/14 02:24:41;;;;;;;2.90;2.60;;;;;;;15.22;89.91;96250.94;5108628;28;20242;-73
2021/07/14 02:27:07;;;;;;;2.73;2.53;;;;;;;15.27;89.50;96253.56;5096671;28;20612;-65
2021/07/14 02:29:37;;;;;;;4.77;3.53;;;;;;;15.21;89.47;96241.44;5104897;28;20195;-65
2021/07/14 02:32:04;;;;;;;2.50;2.40;;;;;;;15.05;90.82;96253.09;5103665;28;20202;-65
2021/07/14 02:34:29;;;;;;;3.80;2.50;;;;;;;15.10;90.47;96252.31;5110878;28;20200;-65
2021/07/14 02:36:57;;;;;;;2.60;2.40;;;;;;;15.08;90.33;96254.44;5095066;28;20231;-67
2021/07/14 02:39:24;;;;;;;4.07;2.70;;;;;;;15.07;90.40;96252.84;5106277;28;20213;-65
2021/07/14 02:41:55;;;;;;;4.60;2.37;;;;;;;15.02;90.90;96243.09;5102120;28;20274;-65
2021/07/14 02:44:24;;;;;;;2.93;2.60;;;;;;;14.72;92.30;96254.47;5099182;28;20169;-65
2021/07/14 02:46:53;;;;;;;2.60;2.40;;;;;;;14.77;91.95;96249.19;5092297;28;20275;-65
2021/07/14 02:49:24;;;;;;;2.80;2.60;;;;;;;14.83;91.91;96240.22;5107111;28;20204;-65
2021/07/14 02:51:50;;;;;;;2.80;2.60;;;;;;;14.90;91.63;96242.59;5092013;28;20177;-65
2021/07/14 02:54:21;;;;;;;2.57;2.20;;;;;;;14.95;91.37;96235.44;5095999;28;20210;-65
2021/07/14 02:56:51;;;;;;;2.63;2.07;;;;;;;14.93;91.51;96237.56;5088603;28;20189;-65
2021/07/14 02:59:20;;;;;;;2.43;2.23;;;;;;;14.94;91.26;96239.13;5093860;28;20587;-65
2021/07/14 03:01:46;;;;;;;3.47;2.37;;;;;;;15.03;90.77;96236.75;5101073;28;20192;-67
2021/07/14 03:04:12;;;;;;;2.43;2.27;;;;;;;15.01;90.77;96235.44;5099852;28;20183;-65
2021/07/14 03:06:38;;;;;;;2.53;2.33;;;;;;;15.04;90.77;96248.13;5095718;28;20196;-65
2021/07/14 03:09:05;;;;;;;4.87;2.53;;;;;;;14.97;91.05;96245.75;5079274;28;20172;-65
2021/07/14 03:11:38;;;;;;;2.63;2.37;;;;;;;14.94;91.11;96247.06;5104953;28;20245;-64
2021/07/14 03:14:09;;;;;;;3.03;2.63;;;;;;;14.94;91.08;96247.06;5103347;28;20193;-64
2021/07/14 03:16:36;;;;;;;2.73;2.53;;;;;;;14.79;92.23;96246.28;5104263;28;20208;-65
2021/07/14 03:19:03;;;;;;;7.80;2.27;;;;;;;14.73;92.84;96239.44;5107527;28;20177;-65
2021/07/14 03:21:33;;;;;;;2.43;2.23;;;;;;;14.71;92.98;96244.97;5099271;28;20195;-64
2021/07/14 03:24:01;;;;;;;2.67;2.47;;;;;;;14.71;93.09;96242.34;5099979;28;20192;-64
2021/07/14 03:26:27;;;;;;;2.67;2.47;;;;;;;14.81;92.38;96255.53;5095488;28;20181;-64
2021/07/14 03:28:54;;;;;;;2.73;2.40;;;;;;;14.81;92.53;96260.81;5109424;28;20215;-65
2021/07/14 03:31:20;;;;;;;4.30;2.97;;;;;;;14.74;93.07;96262.13;5105634;28;20186;-64
2021/07/14 03:33:45;;;;;;;2.70;2.50;;;;;;;14.68;93.66;96256.06;5100546;28;20696;-65
2021/07/14 03:36:12;;;;;;;6.30;2.27;;;;;;;14.93;92.02;96252.63;5107707;28;20236;-65
2021/07/14 03:38:38;;;;;;;3.77;2.50;;;;;;;14.92;91.68;96248.41;5095306;28;20200;-65
2021/07/14 03:41:04;;;;;;;3.50;2.60;;;;;;;14.99;91.13;96249.69;5106676;28;20231;-65
2021/07/14 03:43:29;;;;;;;2.47;2.27;;;;;;;15.16;90.34;96244.09;5106922;28;20184;-61
2021/07/14 03:45:56;;;;;;;2.57;2.37;;;;;;;14.97;91.07;96245.75;5092184;28;20199;-63
2021/07/14 03:48:22;;;;;;;2.60;2.40;;;;;;;14.96;91.31;96252.06;5097041;28;20629;-63
2021/07/14 03:50:49;;;;;;;4.67;2.30;;;;;;;14.98;91.56;96258.69;5107508;28;20190;-63
2021/07/14 03:53:17;;;;;;;2.57;2.37;;;;;;;14.96;91.45;96252.88;5093608;28;20526;-63
2021/07/14 03:55:45;;;;;;;3.03;2.73;;;;;;;15.03;91.13;96260.50;5101470;28;20268;-72
2021/07/14 03:58:10;;;;;;;2.50;2.30;;;;;;;14.88;91.98;96265.81;5099561;28;20204;-64
2021/07/14 04:00:36;;;;;;;3.23;2.60;;;;;;;14.93;91.68;96269.22;5107288;28;20284;-64
2021/07/14 04:03:02;;;;;;;3.13;2.83;;;;;;;14.99;91.08;96262.88;5098966;28;20267;-63
2021/07/14 04:05:28;;;;;;;2.97;2.70;;;;;;;15.05;90.24;96262.88;5093300;28;20187;-63
2021/07/14 04:07:55;;;;;;;4.20;3.03;;;;;;;15.15;89.51;96276.88;5092445;28;20188;-63
2021/07/14 04:10:21;;;;;;;3.70;2.43;;;;;;;15.10;89.43;96268.94;5102788;28;20192;-62
2021/07/14 04:12:49;;;;;;;4.47;2.70;;;;;;;14.97;90.35;96272.13;5099876;28;20190;-63
2021/07/14 04:15:14;;;;;;;2.43;2.30;;;;;;;14.94;90.32;96270.00;5093565;28;20197;-63
2021/07/14 04:17:40;;;;;;;5.67;2.67;;;;;;;14.95;90.00;96266.31;5089878;28;20177;-69
2021/07/14 04:20:06;;;;;;;2.60;2.40;;;;;;;15.12;89.42;96258.91;5102964;28;20183;-63
2021/07/14 04:22:31;;;;;;;2.50;2.30;;;;;;;15.13;89.27;96267.63;5102676;28;20574;-63
2021/07/14 04:24:57;;;;;;;2.83;2.60;;;;;;;15.07;89.70;96264.19;5091315;28;20189;-63
2021/07/14 04:27:22;;;;;;;2.43;2.27;;;;;;;15.11;89.24;96264.44;5105010;28;20188;-63
2021/07/14 04:29:48;;;;;;;2.50;2.30;;;;;;;15.17;89.13;96266.00;5092541;28;20188;-63
2021/07/14 04:32:13;;;;;;;4.30;2.40;;;;;;;15.32;88.50;96260.72;5092600;28;20179;-62
2021/07/14 04:34:38;;;;;;;3.23;2.23;;;;;;;15.22;88.48;96256.22;5105918;28;20637;-63
2021/07/14 04:37:04;;;;;;;3.20;2.60;;;;;;;15.47;87.50;96263.28;5098314;28;20185;-64
2021/07/14 04:39:29;;;;;;;3.73;2.60;;;;;;;15.48;87.09;96261.44;5098214;28;20240;-63
2021/07/14 04:41:55;;;;;;;4.97;2.50;;;;;;;15.57;86.53;96246.63;5101775;28;20268;-68
2021/07/14 04:44:38;;;;;;;2.80;2.50;;;;;;;15.56;86.40;96243.19;5103456;28;20625;-63
2021/07/14 04:47:04;;;;;;;3.00;2.20;;;;;;;15.53;86.34;96241.13;5090529;28;20200;-63
2021/07/14 04:49:30;;;;;;;3.30;2.87;;;;;;;15.67;85.94;96254.50;5097566;28;20180;-63
2021/07/14 04:51:56;;;;;;;3.07;2.37;;;;;;;15.77;85.58;96249.19;5090260;28;20668;-63
2021/07/14 04:54:21;;;;;;;2.87;2.60;;;;;;;15.81;85.49;96252.88;5098770;28;20242;-63
2021/07/14 04:56:49;;;;;;;2.80;2.50;;;;;;;15.89;84.71;96252.28;5107647;28;20227;-63
2021/07/14 04:59:16;;;;;;;2.47;2.20;;;;;;;15.90;84.62;96240.66;5099970;28;20187;-63
2021/07/14 05:01:41;;;;;;;2.80;2.60;;;;;;;15.90;84.62;96234.56;5088823;28;20180;-70
2021/07/14 05:04:07;;;;;;;2.40;2.20;;;;;;;15.90;84.63;96243.28;5103503;28;20541;-63
2021/07/14 05:06:32;;;;;;;2.87;2.67;;;;;;;15.96;83.87;96244.06;5103923;28;20556;-63
2021/07/14 05:08:58;;;;;;;4.03;2.50;;;;;;;15.83;84.31;96247.31;5106777;28;20180;-63
2021/07/14 05:11:23;;;;;;;3.50;3.30;;;;;;;15.95;83.53;96250.41;5107257;28;20608;-63
2021/07/14 05:13:48;;;;;;;2.93;2.47;;;;;;;16.03;83.04;96242.69;5109390;28;20191;-64
2021/07/14 05:16:14;;;;;;;4.03;2.13;;;;;;;15.88;83.84;96240.16;5103360;28;20203;-63
2021/07/14 05:18:39;;;;;;;4.27;2.40;;;;;;;15.92;83.35;96238.53;5092966;28;20199;-63
2021/07/14 05:21:05;;;;;;;3.20;2.57;;;;;;;15.98;83.03;96244.59;5104553;28;20184;-63
2021/07/14 05:23:31;;;;;;;3.57;2.47;;;;;;;16.04;83.03;96246.94;5092637;28;20645;-64
2021/07/14 05:25:57;;;;;;;2.50;2.30;;;;;;;16.12;82.28;96245.53;5102116;28;20541;-63
2021/07/14 05:28:23;;;;;;;4.10;2.20;;;;;;;16.29;81.53;96251.25;5105232;28;20659;-63
2021/07/14 05:30:48;;;;;;;2.40;2.13;;;;;;;16.28;81.43;96244.38;5102431;28;20267;-63
2021/07/14 05:33:15;;;;;;;3.23;2.00;;;;;;;16.32;81.28;96247.28;5094845;28;20184;-62
2021/07/14 05:35:40;;;;;;;2.50;2.33;;;;;;;16.31;81.39;96251.75;5104263;28;20196;-71
2021/07/14 05:38:06;;;;;;;2.37;2.17;;;;;;;16.46;80.97;96253.50;5096118;28;20179;-62
2021/07/14 05:40:31;;;;;;;3.63;2.10;;;;;;;16.44;80.85;96259.06;5095964;28;20756;-62
2021/07/14 05:42:57;;;;;;;2.13;2.03;;;;;;;16.55;80.21;96263.19;5091361;28;20225;-63
2021/07/14 05:45:24;;;;;;;2.20;2.10;;;;;;;16.68;79.49;96259.16;5097148;28;20645;-62
2021/07/14 05:47:50;;;;;;;2.83;1.90;;;;;;;16.77;79.26;96259.38;5109141;28;20706;-62
2021/07/14 05:50:15;;;;;;;2.33;2.13;;;;;;;16.81;78.78;96253.22;5094908;28;20180;-61
2021/07/14 05:52:41;;;;;;;3.53;2.17;;;;;;;16.86;79.15;96261.13;5104264;28;20210;-68
2021/07/14 05:55:09;;;;;;;4.17;2.50;;;;;;;16.84;78.96;96257.97;5094536;28;20216;-62
2021/07/14 05:57:35;;;;;;;2.37;2.20;;;;;;;16.85;79.00;96256.09;5095792;28;20188;-62
2021/07/14 06:00:00;;;;;;;2.83;2.20;;;;;;;16.86;78.73;96258.47;5095536;28;20379;-62
2021/07/14 06:02:25;;;;;;;3.77;2.27;;;;;;;16.84;78.68;96255.31;5094262;28;20233;-62
2021/07/14 06:04:51;;;;;;;2.30;2.07;;;;;;;16.86;78.83;96252.41;5094378;28;20544;-62
2021/07/14 06:07:16;;;;;;;2.57;2.37;;;;;;;16.92;78.36;96249.44;5097106;28;20176;-62
2021/07/14 06:09:42;;;;;;;2.20;2.10;;;;;;;16.96;78.05;96250.44;5111548;28;20271;-66
2021/07/14 06:12:08;;;;;;;2.53;2.10;;;;;;;16.92;77.69;96259.22;5099815;28;20191;-61
2021/07/14 06:14:33;;;;;;;2.33;2.13;;;;;;;16.95;77.07;96256.78;5105573;28;20196;-63
2021/07/14 06:16:58;;;;;;;2.50;2.30;;;;;;;16.85;77.86;96261.41;5104698;28;20176;-62
2021/07/14 06:19:25;;;;;;;2.27;2.07;;;;;;;16.86;77.64;96265.63;5094060;28;20195;-62
2021/07/14 06:21:51;;;;;;;2.27;2.10;;;;;;;16.93;77.97;96266.09;5096122;28;20176;-62
2021/07/14 06:24:16;;;;;;;4.90;2.50;;;;;;;16.82;78.60;96267.25;5111004;28;20651;-63
2021/07/14 06:26:42;;;;;;;3.67;2.63;;;;;;;16.79;78.82;96279.19;5103484;28;20708;-65
2021/07/14 06:29:08;;;;;;;7.47;2.30;;;;;;;16.83;78.26;96269.63;5099593;28;20187;-62
2021/07/14 06:31:34;;;;;;;4.27;2.73;;;;;;;16.88;77.36;96268.81;5089834;28;20189;-62
2021/07/14 06:34:00;;;;;;;4.07;2.30;;;;;;;16.77;78.24;96269.97;5090093;28;20202;-61
2021/07/14 06:36:25;;;;;;;2.60;2.40;;;;;;;16.77;78.47;96276.03;5110704;28;20196;-62
2021/07/14 06:38:50;;;;;;;3.17;2.63;;;;;;;16.79;78.57;96275.75;5100656;28;20546;-61
2021/07/14 06:41:18;;;;;;;4.60;2.30;;;;;;;16.93;78.16;96274.03;5099279;28;20180;-63
2021/07/14 06:43:45;;;;;;;2.00;1.90;;;;;;;16.99;78.64;96275.56;5103441;28;20180;-65
2021/07/14 06:46:13;;;;;;;3.33;2.50;;;;;;;17.15;77.94;96274.34;5096721;28;20212;-61
2021/07/14 06:48:39;;;;;;;2.50;2.30;;;;;;;17.04;78.31;96264.94;5106119;28;20179;-61
2021/07/14 06:51:05;;;;;;;2.13;2.03;;;;;;;17.08;78.43;96268.59;5101979;28;20269;-62
2021/07/14 06:53:30;;;;;;;4.60;2.33;;;;;;;17.04;78.05;96255.13;5089772;28;20548;-62
2021/07/14 06:55:58;;;;;;;2.53;2.33;;;;;;;17.13;77.99;96257.94;5099995;28;20193;-62
2021/07/14 06:58:24;;;;;;;2.43;2.23;;;;;;;17.23;77.45;96255.19;5106328;28;20213;-62
2021/07/14 07:00:50;;;;;;;2.87;2.30;;;;;;;17.30;76.77;96255.66;5094309;28;20177;-63
2021/07/14 07:03:15;;;;;;;2.33;2.20;;;;;;;17.38;76.67;96257.69;5092333;28;20188;-61
2021/07/14 07:05:40;;;;;;;2.37;2.03;;;;;;;17.16;76.61;96251.31;5092672;28;20610;-62
2021/07/14 07:08:06;;;;;;;4.10;1.90;;;;;;;17.31;76.33;96253.78;5093773;28;20180;-61
2021/07/14 07:10:31;;;;;;;2.10;2.00;;;;;;;17.46;75.61;96256.25;5100637;28;20275;-63
2021/07/14 07:12:57;;;;;;;2.30;2.10;;;;;;;17.57;75.05;96257.72;5093728;28;20226;-64
2021/07/14 07:15:22;;;;;;;2.47;2.27;;;;;;;17.60;74.55;96257.19;5097054;28;20258;-61
2021/07/14 07:17:47;;;;;;;2.00;1.83;;;;;;;17.48;75.23;96262.06;5094235;28;20176;-65
2021/07/14 07:20:14;;;;;;;2.37;2.17;;;;;;;17.50;75.00;96267.09;5101374;28;20184;-62
2021/07/14 07:22:41;;;;;;;2.20;2.00;;;;;;;17.65;74.55;96264.28;5098416;28;20188;-62
2021/07/14 07:25:07;;;;;;;5.20;2.27;;;;;;;17.82;74.19;96256.66;5099688;28;20241;-64
2021/07/14 07:27:35;;;;;;;2.67;2.47;;;;;;;17.78;74.46;96256.41;5092891;28;20267;-62
2021/07/14 07:30:03;;;;;;;2.27;2.07;;;;;;;17.80;75.00;96266.75;5094101;28;20309;-62
2021/07/14 07:32:29;;;;;;;2.03;1.93;;;;;;;17.71;75.28;96266.59;5090446;28;20649;-62
2021/07/14 07:34:54;;;;;;;2.83;2.47;;;;;;;17.56;76.45;96273.91;5090014;28;20372;-62
2021/07/14 07:37:20;;;;;;;2.23;2.13;;;;;;;17.65;76.59;96270.38;5103035;28;20219;-62
2021/07/14 07:39:46;;;;;;;2.80;2.60;;;;;;;17.42;77.45;96279.91;5097928;28;20795;-66
2021/07/14 07:42:11;;;;;;;3.27;2.20;;;;;;;17.33;77.96;96281.56;5105054;28;20192;-63
2021/07/14 07:44:38;;;;;;;2.53;2.33;;;;;;;17.64;76.28;96286.56;5100122;28;20176;-62
2021/07/14 07:47:04;;;;;;;2.60;2.40;;;;;;;17.76;75.32;96281.66;5095320;28;20183;-62
2021/07/14 07:49:29;;;;;;;2.77;2.00;;;;;;;17.80;75.10;96288.75;5102324;28;20179;-62
2021/07/14 07:51:54;;;;;;;2.90;2.30;;;;;;;17.77;74.94;96280.59;5093607;28;20304;-62
2021/07/14 07:54:20;;;;;;;3.17;2.20;;;;;;;17.59;75.60;96279.44;5096978;28;20547;-62
2021/07/14 07:56:45;;;;;;;2.40;2.20;;;;;;;17.73;75.27;96271.59;5099881;28;20212;-67
2021/07/14 07:59:11;;;;;;;2.13;1.77;;;;;;;17.79;74.65;96268.59;5102153;28;20176;-62
2021/07/14 08:01:37;;;;;;;4.50;2.33;;;;;;;18.01;73.96;96268.03;5099507;28;20188;-62
2021/07/14 08:04:03;;;;;;;2.87;2.10;;;;;;;17.92;74.17;96279.59;5100027;28;20175;-61
2021/07/14 08:06:28;;;;;;;3.53;2.40;;;;;;;18.01;74.04;96291.13;5094406;28;20279;-63
2021/07/14 08:08:54;;;;;;;3.17;2.97;;;;;;;18.02;74.39;96292.72;5102884;28;20263;-63
2021/07/14 08:11:19;;;;;;;2.50;2.27;;;;;;;17.96;75.12;96309.75;5089220;28;20619;-62
2021/07/14 08:13:45;;;;;;;2.20;2.10;;;;;;;17.93;75.26;96315.66;5094438;28;20179;-63
2021/07/14 08:16:10;;;;;;;2.20;2.00;;;;;;;17.96;75.33;96329.13;5093849;28;20200;-62
2021/07/14 08:18:36;;;;;;;2.10;2.00;;;;;;;17.95;75.53;96330.19;5097775;28;20184;-62
2021/07/14 08:21:01;;;;;;;2.47;2.30;;;;;;;17.83;76.37;96325.28;5102305;28;20184;-62
2021/07/14 08:23:27;;;;;;;2.23;2.03;;;;;;;17.76;76.90;96322.22;5105276;28;20264;-64
2021/07/14 08:25:53;;;;;;;2.40;2.20;;;;;;;17.69;77.27;96321.75;5089645;28;20188;-63
2021/07/14 08:28:22;;;;;;;4.87;2.50;;;;;;;17.59;77.28;96319.19;5101031;28;20177;-62
2021/07/14 08:30:48;;;;;;;2.77;2.50;;;;;;;17.62;77.94;96321.28;5099929;28;20184;-66
2021/07/14 08:33:14;;;;;;;3.07;2.37;;;;;;;17.66;77.71;96319.69;5104165;28;20188;-62
2021/07/14 08:35:42;;;;;;;3.17;2.17;;;;;;;17.71;77.76;96310.88;5101763;28;20204;-63
2021/07/14 08:38:09;;;;;;;3.00;2.33;;;;;;;17.74;77.80;96316.38;5108158;28;20172;-62
2021/07/14 08:40:37;;;;;;;3.43;2.23;;;;;;;17.59;78.51;96313.09;5092621;28;20228;-63
2021/07/14 08:43:03;;;;;;;3.37;2.30;;;;;;;17.59;78.32;96324.50;5093347;28;20184;-63
2021/07/14 08:45:28;;;;;;;2.33;1.97;;;;;;;17.93;77.20;96329.69;5104966;28;20188;-62
2021/07/14 08:47:54;;;;;;;2.30;2.20;;;;;;;18.17;76.28;96332.28;5109080;28;20191;-63
2021/07/14 08:50:21;;;;;;;2.20;2.03;;;;;;;18.21;75.65;96346.59;5097125;28;20184;-62
2021/07/14 08:52:48;;;;;;;2.30;2.10;;;;;;;18.46;74.64;96337.47;5108497;28;20213;-62
2021/07/14 08:55:16;;;;;;;2.70;2.13;;;;;;;18.63;74.11;96343.09;5103406;28;20202;-62
2021/07/14 08:57:43;;;;;;;2.40;2.20;;;;;;;18.64;73.42;96345.47;5103042;28;20640;-63
2021/07/14 09:00:12;;;;;;;2.10;2.00;;;;;;;18.81;72.82;96347.59;5092496;28;20171;-63
2021/07/14 09:02:40;;;;;;;1.90;1.80;;;;;;;18.93;72.39;96339.19;5107969;28;20237;-63
2021/07/14 09:05:06;;;;;;;3.75;2.30;;;;;;;19.15;71.37;96347.31;5106456;28;20196;-62
2021/07/14 09:07:31;;;;;;;3.30;1.98;;;;;;;19.30;70.56;96348.91;5101726;28;20640;-62
2021/07/14 09:09:57;;;;;;;2.00;1.90;;;;;;;19.35;70.21;96346.97;5101975;28;20192;-62
2021/07/14 09:12:35;;;;;;;2.67;1.80;;;;;;;19.29;70.70;96348.13;5105660;28;20168;-64
2021/07/14 09:15:05;;;;;;;2.00;1.90;;;;;;;19.54;69.32;96348.78;5095358;28;20218;-63
2021/07/14 09:17:31;;;;;;;2.75;2.17;;;;;;;19.65;68.87;96350.97;5103515;28;20511;-62
2021/07/14 09:20:25;;;;;;;3.53;2.13;;;;;;;19.83;68.18;96351.97;5107300;28;20188;-63
2021/07/14 09:23:05;;;;;;;1.83;1.73;;;;;;;20.05;66.85;96352.06;5097173;28;20196;-66
2021/07/14 09:25:40;;;;;;;2.10;2.00;;;;;;;20.08;66.96;96342.69;5099115;28;20181;-63
2021/07/14 09:28:07;;;;;;;2.03;1.92;;;;;;;20.11;66.39;96336.78;5096821;28;20183;-63
2021/07/14 09:30:33;;;;;;;2.40;2.20;;;;;;;20.23;66.41;96327.16;5102745;28;20184;-63
2021/07/14 09:33:01;;;;;;;2.30;2.10;;;;;;;20.12;66.34;96341.00;5102046;28;20180;-63
2021/07/14 09:35:47;;;;;;;2.63;2.42;;;;;;;20.26;66.22;96331.91;5107308;28;20568;-63
2021/07/14 09:38:21;;;;;;;2.17;2.05;;;;;;;20.41;65.75;96344.13;5096724;28;20349;-63
2021/07/14 09:40:50;;;;;;;2.25;2.03;;;;;;;20.28;66.22;96335.03;5079571;28;20221;-63
2021/07/14 09:43:31;;;;;;;2.75;2.15;;;;;;;20.38;65.40;96334.09;5099347;28;20261;-63
2021/07/14 09:46:10;;;;;;;2.25;2.08;;;;;;;20.28;65.73;96337.72;5093215;28;20238;-63
2021/07/14 09:48:38;;;;;;;2.42;2.10;;;;;;;20.55;65.15;96331.56;5091970;28;20656;-63
2021/07/14 09:51:19;;;;;;;2.65;2.10;;;;;;;20.71;64.51;96337.34;5104900;28;20176;-63
2021/07/14 09:53:46;;;;;;;2.10;2.00;;;;;;;20.94;63.28;96340.78;5104296;28;20595;-63
2021/07/14 09:56:20;;;;;;;5.18;2.00;;;;;;;21.18;62.11;96343.94;5095488;28;20199;-63
2021/07/14 09:58:46;;;;;;;2.42;2.22;;;;;;;21.13;63.09;96346.72;5096346;28;20189;-62
2021/07/14 10:01:15;;;;;;;2.72;2.30;;;;;;;21.51;61.81;96352.47;5108456;28;20240;-62
2021/07/14 10:03:52;;;;;;;2.20;2.00;;;;;;;21.63;61.19;96349.19;5096099;28;20649;-62
2021/07/14 10:06:24;;;;;;;2.42;2.22;;;;;;;22.11;59.87;96349.25;5083434;28;20211;-63
2021/07/14 10:08:50;;;;;;;1.80;1.70;;;;;;;22.28;58.57;96354.63;5091020;28;20649;-64
2021/07/14 10:11:15;;;;;;;2.10;2.00;;;;;;;22.28;58.45;96347.41;5110766;28;20223;-62
2021/07/14 10:13:57;;;;;;;2.30;2.20;;;;;;;22.34;58.95;96350.72;5092635;28;20690;-62
2021/07/14 10:16:28;;;;;;;2.10;2.00;;;;;;;22.62;57.83;96352.00;5094745;28;20252;-62
2021/07/14 10:18:54;;;;;;;2.30;2.10;;;;;;;23.16;56.35;96355.13;5105028;28;20561;-66
2021/07/14 10:21:20;;;;;;;2.70;2.30;;;;;;;23.64;55.83;96354.88;5093809;28;20188;-63
2021/07/14 10:23:45;;;;;;;4.03;2.20;;;;;;;23.70;54.73;96350.91;5089970;28;20185;-63
2021/07/14 10:26:10;;;;;;;2.30;2.10;;;;;;;23.85;54.08;96354.97;5096083;28;20180;-62
2021/07/14 10:28:36;;;;;;;2.00;1.90;;;;;;;24.07;53.51;96353.91;5106914;28;20644;-62
2021/07/14 10:31:02;;;;;;;3.25;2.20;;;;;;;24.11;52.78;96352.94;5097373;28;20215;-62
2021/07/14 10:33:28;;;;;;;3.17;2.00;;;;;;;23.99;52.51;96345.59;5101120;28;20608;-62
2021/07/14 10:35:56;;;;;;;2.50;2.30;;;;;;;24.13;52.47;96348.00;5096518;28;20222;-67
2021/07/14 10:38:28;;;;;;;2.05;1.95;;;;;;;24.29;52.33;96348.28;5096561;28;20184;-63
2021/07/14 10:40:56;;;;;;;3.38;2.10;;;;;;;24.32;51.76;96364.50;5103830;28;20430;-67
2021/07/14 10:43:27;;;;;;;2.20;2.10;;;;;;;24.45;52.05;96351.97;5098074;28;20729;-63
2021/07/14 10:45:53;;;;;;;7.15;2.00;;;;;;;24.32;52.33;96364.50;5074545;28;20640;-66
2021/07/14 10:48:22;;;;;;;2.58;2.30;;;;;;;24.16;52.74;96362.66;5095452;28;20189;-64
2021/07/14 10:50:49;;;;;;;3.40;2.20;;;;;;;24.50;51.85;96365.16;5102940;28;20196;-63
2021/07/14 10:53:16;;;;;;;2.38;2.00;;;;;;;24.09;53.07;96370.41;5110538;28;20190;-63
2021/07/14 10:55:44;;;;;;;1.90;1.75;;;;;;;24.13;52.23;96369.44;5099661;28;20203;-63
2021/07/14 10:58:14;;;;;;;2.10;1.90;;;;;;;24.54;50.78;96373.34;5094988;28;20526;-62
2021/07/14 11:00:41;;;;;;;2.10;1.90;;;;;;;24.88;49.82;96365.06;5098900;28;20188;-64
2021/07/14 11:03:07;;;;;;;2.10;1.90;;;;;;;25.20;48.58;96361.59;5104684;28;20204;-63
2021/07/14 11:05:47;;;;;;;1.67;1.67;;;;;;;24.84;49.06;96372.16;5106438;28;20196;-63
2021/07/14 11:08:37;;;;;;;1.30;1.30;;;;;;;25.02;49.08;96365.56;5096044;28;20183;-63
2021/07/14 11:11:03;;;;;;;2.08;1.98;;;;;;;25.16;48.21;96358.03;5097881;28;20180;-64
2021/07/14 11:13:33;;;;;;;1.70;1.60;;;;;;;25.62;47.41;96366.91;5091580;28;20651;-63
2021/07/14 11:16:31;;;;;;;2.05;1.95;;;;;;;25.57;46.80;96365.22;5095853;28;20277;-63
2021/07/14 11:19:07;;;;;;;1.92;1.92;;;;;;;25.38;47.02;96372.97;5100049;28;20184;-67
2021/07/14 11:21:47;;;;;;;2.17;1.98;;;;;;;25.53;46.18;96358.09;5098755;28;20191;-65
2021/07/14 11:24:46;;;;;;;2.30;2.20;;;;;;;25.33;46.29;96354.38;5105789;28;20383;-63
2021/07/14 11:27:27;;;;;;;2.10;2.00;;;;;;;25.89;46.10;96354.72;5083088;28;20185;-64
2021/07/14 11:30:16;;;;;;;2.65;2.55;;;;;;;26.03;44.73;96353.25;5096960;28;20184;-63
2021/07/14 11:32:41;;;;;;;2.70;2.60;;;;;;;25.82;45.20;96354.50;5098800;28;20257;-63
2021/07/14 11:35:14;;;;;;;3.05;2.80;;;;;;;25.64;45.14;96346.63;5105128;28;20652;-63
2021/07/14 11:37:57;;;;;;;2.80;2.70;;;;;;;25.37;43.48;96344.56;5095948;28;20629;-64
2021/07/14 11:40:23;;;;;;;2.85;2.65;;;;;;;25.79;43.94;96341.75;5107461;28;20227;-63
2021/07/14 11:43:00;;;;;;;2.55;2.35;;;;;;;25.59;44.40;96338.81;5107229;28;20368;-63
2021/07/14 11:45:25;;;;;;;2.65;2.42;;;;;;;25.45;44.64;96340.22;5104687;28;20267;-64